createdAt,value
2022-08-23T00:00:34.138Z,0.55
2022-08-23T00:05:37.725Z,0.45
2022-08-23T00:10:42.683Z,0.20
2022-08-23T00:15:46.745Z,0.95
2022-08-23T00:20:50.317Z,0.43
2022-08-23T00:25:55.245Z,0.30
2022-08-23T00:30:58.829Z,0.60
2022-08-23T00:36:02.378Z,0.70
2022-08-23T00:41:07.668Z,0.67
2022-08-23T00:46:37.004Z,0.37
2022-08-23T00:51:52.761Z,0.52
2022-08-23T00:57:00.984Z,0.73
2022-08-23T01:02:05.478Z,0.45
2022-08-23T01:12:32.698Z,0.37
2022-08-23T01:17:41.769Z,0.40
2022-08-23T01:22:53.906Z,0.30
2022-08-23T01:27:59.422Z,0.68
2022-08-23T01:33:07.223Z,0.50
2022-08-23T01:38:12.644Z,0.75
2022-08-23T01:43:21.459Z,0.77
2022-08-23T01:48:26.703Z,0.57
2022-08-23T01:53:30.293Z,0.60
2022-08-23T01:58:36.182Z,0.40
2022-08-23T02:03:40.032Z,0.62
2022-08-23T02:09:03.656Z,0.28
2022-08-23T02:14:12.379Z,0.45
2022-08-23T02:19:17.745Z,0.50
2022-08-23T02:24:25.107Z,0.90
2022-08-23T02:29:31.069Z,0.77
2022-08-23T02:34:36.850Z,0.13
2022-08-23T02:39:42.695Z,0.47
2022-08-23T02:44:48.386Z,0.47
2022-08-23T02:49:53.621Z,0.43
2022-08-23T02:54:58.410Z,0.70
2022-08-23T03:00:03.764Z,0.73
2022-08-23T03:05:09.067Z,0.40
2022-08-23T03:10:13.555Z,0.80
2022-08-23T03:15:19.024Z,0.80
2022-08-23T03:20:23.053Z,0.57
2022-08-23T03:25:28.144Z,1.00
2022-08-23T03:30:34.859Z,0.60
2022-08-23T03:35:39.889Z,1.17
2022-08-23T03:40:44.859Z,0.50
2022-08-23T03:45:49.950Z,0.65
2022-08-23T03:50:54.797Z,0.88
2022-08-23T03:55:59.260Z,0.73
2022-08-23T04:01:04.924Z,0.40
2022-08-23T04:06:08.842Z,0.55
2022-08-23T04:11:14.520Z,0.47
2022-08-23T04:16:21.066Z,0.40
2022-08-23T04:21:25.590Z,0.28
2022-08-23T04:31:36.131Z,0.32
2022-08-23T04:36:46.011Z,0.50
2022-08-23T04:42:14.967Z,0.68
2022-08-23T04:47:20.905Z,0.60
2022-08-23T04:52:25.291Z,0.43
2022-08-23T04:57:29.304Z,0.53
2022-08-23T05:02:34.286Z,0.40
2022-08-23T05:07:41.618Z,0.35
2022-08-23T05:12:48.077Z,0.30
2022-08-23T05:17:54.616Z,0.20
2022-08-23T05:22:58.704Z,0.50
2022-08-23T05:28:03.421Z,0.30
2022-08-23T05:33:08.468Z,0.25
2022-08-23T05:38:12.056Z,0.40
2022-08-23T05:48:24.213Z,0.40
2022-08-23T05:53:28.697Z,0.30
2022-08-23T05:58:32.514Z,0.10
2022-08-23T06:03:37.816Z,0.40
2022-08-23T06:08:41.482Z,0.45
2022-08-23T06:13:47.475Z,0.10
2022-08-23T06:18:53.061Z,0.30
2022-08-23T06:23:58.176Z,0.05
2022-08-23T06:29:04.844Z,0.30
2022-08-23T06:34:12.186Z,0.20
2022-08-23T06:39:18.367Z,0.17
2022-08-23T06:44:22.240Z,0.25
2022-08-23T06:49:29.282Z,0.28
2022-08-23T06:54:35.563Z,0.35
2022-08-23T06:59:41.530Z,0.05
2022-08-23T07:04:53.736Z,0.20
2022-08-23T07:09:58.383Z,0.28
2022-08-23T07:15:01.942Z,0.40
2022-08-23T07:20:08.340Z,0.37
2022-08-23T07:25:12.421Z,0.17
2022-08-23T07:30:16.482Z,0.45
2022-08-23T07:35:22.280Z,0.05
2022-08-23T07:40:27.785Z,0.30
2022-08-23T07:45:31.973Z,0.17
2022-08-23T07:50:40.649Z,0.20
2022-08-23T07:55:58.591Z,0.10
2022-08-23T08:01:13.107Z,0.20
2022-08-23T08:06:21.557Z,0.17
2022-08-23T08:11:33.706Z,0.10
2022-08-23T08:16:41.123Z,0.10
2022-08-23T08:21:48.585Z,0.10
2022-08-23T08:26:52.406Z,0.20
2022-08-23T08:31:56.533Z,0.00
2022-08-23T08:37:01.472Z,0.10
2022-08-23T08:42:22.338Z,0.03
2022-08-23T08:47:41.793Z,0.10
2022-08-23T08:52:50.742Z,0.10
2022-08-23T08:57:56.565Z,0.10
2022-08-23T09:03:04.658Z,0.13
2022-08-23T09:08:35.693Z,0.20
2022-08-23T09:14:16.123Z,0.00
2022-08-23T09:19:22.325Z,0.08
2022-08-23T09:24:29.558Z,0.10
2022-08-23T09:29:36.053Z,0.00
2022-08-23T09:34:43.471Z,0.00
2022-08-23T09:39:51.498Z,0.10
2022-08-23T09:44:56.406Z,0.10
2022-08-23T09:50:11.076Z,0.10
2022-08-23T09:55:29.728Z,0.05
2022-08-23T10:00:36.020Z,0.00
2022-08-23T10:05:42.502Z,0.00
2022-08-23T10:10:52.700Z,0.05
2022-08-23T10:16:05.047Z,0.00
2022-08-23T10:26:33.791Z,0.00
2022-08-23T10:31:48.513Z,0.20
2022-08-23T10:37:01.859Z,0.00
2022-08-23T10:42:15.406Z,0.10
2022-08-23T10:47:30.649Z,0.07
2022-08-23T10:52:40.782Z,0.10
2022-08-23T10:57:54.047Z,0.00
2022-08-23T11:03:10.491Z,0.00
2022-08-23T11:08:33.502Z,0.00
2022-08-23T11:13:38.791Z,0.00
2022-08-23T11:18:46.085Z,0.00
2022-08-23T11:23:54.380Z,0.10
2022-08-23T11:29:29.722Z,0.00
2022-08-23T11:34:44.681Z,0.00
2022-08-23T11:40:12.637Z,0.00
2022-08-23T11:45:29.518Z,0.10
2022-08-23T11:50:40.483Z,0.00
2022-08-23T11:56:06.906Z,0.00
2022-08-23T12:01:14.664Z,0.00
2022-08-23T12:06:50.864Z,0.10
2022-08-23T12:12:26.169Z,0.00
2022-08-23T12:18:10.886Z,0.00
2022-08-23T12:23:19.804Z,0.10
2022-08-23T12:28:47.010Z,0.10
2022-08-23T12:34:02.946Z,0.13
2022-08-23T12:39:09.952Z,0.00
2022-08-23T12:44:19.287Z,0.00
2022-08-23T12:49:30.561Z,0.10
2022-08-23T12:54:37.620Z,0.00
2022-08-23T12:59:49.071Z,0.10
2022-08-23T13:04:58.384Z,0.00
2022-08-23T13:10:02.433Z,0.00
2022-08-23T13:15:07.089Z,0.00
2022-08-23T13:20:30.193Z,0.08
2022-08-23T13:25:36.461Z,0.08
2022-08-23T13:30:40.244Z,0.10
2022-08-23T13:35:47.242Z,0.10
2022-08-23T13:40:58.948Z,0.00
2022-08-23T13:46:13.294Z,0.00
2022-08-23T13:56:48.240Z,0.17
2022-08-23T14:01:52.386Z,0.08
2022-08-23T14:06:55.968Z,0.00
2022-08-23T14:12:09.659Z,0.43
2022-08-23T14:17:16.393Z,0.00
2022-08-23T14:22:20.559Z,0.00
2022-08-23T14:27:25.647Z,0.00
2022-08-23T14:32:29.904Z,0.10
2022-08-23T14:42:58.831Z,0.20
2022-08-23T14:48:02.979Z,0.10
2022-08-23T14:58:11.909Z,0.10
2022-08-23T15:03:20.510Z,0.08
2022-08-23T15:08:24.864Z,0.10
2022-08-23T15:18:41.226Z,0.20
2022-08-23T15:23:45.399Z,0.10
2022-08-23T15:33:54.120Z,0.10
2022-08-23T15:38:58.284Z,0.10
2022-08-23T15:44:03.636Z,0.25
2022-08-23T15:49:13.512Z,0.10
2022-08-23T15:54:17.072Z,0.20
2022-08-23T15:59:22.672Z,0.10
2022-08-23T16:04:26.292Z,0.40
2022-08-23T16:09:37.678Z,0.10
2022-08-23T16:14:42.694Z,0.05
2022-08-23T16:19:46.287Z,0.03
2022-08-23T16:24:50.598Z,0.05
2022-08-23T16:29:55.559Z,0.20
2022-08-23T16:34:59.163Z,0.10
2022-08-23T16:40:02.926Z,0.15
2022-08-23T16:45:09.848Z,0.10
2022-08-23T16:50:13.847Z,0.15
2022-08-23T16:55:17.579Z,0.10
2022-08-23T17:00:22.795Z,0.00
2022-08-23T17:05:26.606Z,0.10
2022-08-23T17:10:30.250Z,0.10
2022-08-23T17:15:37.669Z,0.10
2022-08-23T17:20:41.370Z,0.10
2022-08-23T17:25:48.015Z,0.20
2022-08-23T17:30:54.592Z,0.15
2022-08-23T17:35:59.398Z,0.10
2022-08-23T17:41:03.029Z,0.00
2022-08-23T17:46:08.253Z,0.10
2022-08-23T17:51:11.975Z,0.25
2022-08-23T17:56:16.047Z,0.10
2022-08-23T18:01:21.921Z,0.20
2022-08-23T18:06:26.770Z,0.20
2022-08-23T18:11:31.989Z,0.10
2022-08-23T18:16:38.516Z,0.32
2022-08-23T18:21:43.714Z,0.10
2022-08-23T18:27:05.008Z,0.10
2022-08-23T18:32:10.673Z,0.17
2022-08-23T18:37:17.035Z,0.10
2022-08-23T18:42:20.679Z,0.77
2022-08-23T18:47:26.498Z,0.20
2022-08-23T18:52:32.341Z,0.43
2022-08-23T18:57:36.018Z,0.17
2022-08-23T19:02:41.112Z,0.10
2022-08-23T19:07:44.686Z,0.30
2022-08-23T19:12:54.086Z,0.30
2022-08-23T19:17:59.384Z,0.20
2022-08-23T19:23:03.173Z,0.10
2022-08-23T19:28:07.403Z,0.30
2022-08-23T19:33:13.203Z,0.25
2022-08-23T19:38:16.793Z,0.10
2022-08-23T19:43:20.392Z,0.10
2022-08-23T19:48:25.381Z,0.30
2022-08-23T19:53:29.165Z,0.20
2022-08-23T19:58:32.968Z,0.10
2022-08-23T20:03:38.101Z,0.20
2022-08-23T20:08:41.709Z,0.20
2022-08-23T20:13:45.477Z,0.30
2022-08-23T20:18:51.418Z,0.22
2022-08-23T20:24:04.675Z,0.50
2022-08-23T20:29:10.189Z,0.43
2022-08-23T20:34:15.150Z,0.30
2022-08-23T20:39:23.637Z,0.10
2022-08-23T20:44:27.877Z,0.50
2022-08-23T20:49:34.347Z,0.40
2022-08-23T20:54:37.931Z,0.40
2022-08-23T20:59:44.802Z,0.20
2022-08-23T21:04:50.144Z,0.30
2022-08-23T21:09:54.567Z,0.13
2022-08-23T21:14:58.165Z,0.27
2022-08-23T21:20:04.548Z,0.20
2022-08-23T21:25:12.237Z,0.30
2022-08-23T21:30:16.572Z,0.17
2022-08-23T21:40:25.008Z,0.25
2022-08-23T21:45:28.864Z,0.30
2022-08-23T21:50:36.654Z,0.37
2022-08-23T21:55:40.929Z,0.45
2022-08-23T22:00:44.994Z,0.40
2022-08-23T22:05:49.917Z,0.47
2022-08-23T22:10:57.529Z,0.40
2022-08-23T22:16:02.452Z,0.30
2022-08-23T22:21:07.641Z,0.20
2022-08-23T22:26:13.669Z,0.22
2022-08-23T22:31:17.352Z,0.20
2022-08-23T22:36:24.557Z,0.30
2022-08-23T22:41:30.826Z,0.50
2022-08-23T22:46:35.406Z,0.30
2022-08-23T22:51:40.504Z,0.37
2022-08-23T22:56:46.367Z,0.37
2022-08-23T23:01:52.031Z,0.30
2022-08-23T23:06:57.914Z,0.20
2022-08-23T23:12:01.475Z,0.30
2022-08-23T23:17:05.401Z,0.20
2022-08-23T23:22:10.509Z,0.15
2022-08-23T23:27:14.065Z,0.17
2022-08-23T23:32:18.219Z,0.20
2022-08-23T23:37:23.133Z,0.30
2022-08-23T23:42:26.700Z,0.20
2022-08-23T23:47:30.278Z,0.30
2022-08-23T23:52:35.324Z,0.60
2022-08-23T23:57:39.525Z,0.17
